createdAt,value
2023-03-24T00:01:29.325Z,3.92
2023-03-24T00:03:55.945Z,3.72
2023-03-24T00:06:23.000Z,7.30
2023-03-24T00:08:49.714Z,3.40
2023-03-24T00:11:18.742Z,3.65
2023-03-24T00:13:47.279Z,4.13
2023-03-24T00:16:14.336Z,4.60
2023-03-24T00:18:41.136Z,4.18
2023-03-24T00:21:07.861Z,5.72
2023-03-24T00:23:34.380Z,4.15
2023-03-24T00:26:02.737Z,4.60
2023-03-24T00:28:33.525Z,4.80
2023-03-24T00:31:02.184Z,4.78
2023-03-24T00:33:32.848Z,3.83
2023-03-24T00:35:59.673Z,2.60
2023-03-24T00:38:26.682Z,4.30
2023-03-24T00:40:53.181Z,2.97
2023-03-24T00:43:19.959Z,3.03
2023-03-24T00:45:46.563Z,2.00
2023-03-24T00:48:13.809Z,2.33
2023-03-24T00:50:40.400Z,2.22
2023-03-24T00:53:06.896Z,1.80
2023-03-24T00:55:34.050Z,3.75
2023-03-24T00:58:01.313Z,1.80
2023-03-24T01:00:27.973Z,3.30
2023-03-24T01:02:55.557Z,2.10
2023-03-24T01:05:31.240Z,2.67
2023-03-24T01:07:58.280Z,3.47
2023-03-24T01:10:26.613Z,4.07
2023-03-24T01:12:55.154Z,2.90
2023-03-24T01:15:22.304Z,2.42
2023-03-24T01:17:48.902Z,2.55
2023-03-24T01:20:15.539Z,3.17
2023-03-24T01:22:45.019Z,3.47
2023-03-24T01:25:16.932Z,4.35
2023-03-24T01:27:44.009Z,1.58
2023-03-24T01:30:11.979Z,2.22
2023-03-24T01:32:38.684Z,2.90
2023-03-24T01:35:05.387Z,3.30
2023-03-24T01:37:31.963Z,3.00
2023-03-24T01:39:58.477Z,2.85
2023-03-24T01:42:25.533Z,2.55
2023-03-24T01:44:52.409Z,3.35
2023-03-24T01:47:18.876Z,2.25
2023-03-24T01:49:45.357Z,5.70
2023-03-24T01:52:16.350Z,5.32
2023-03-24T01:54:51.151Z,5.68
2023-03-24T01:57:20.262Z,3.00
2023-03-24T01:59:47.687Z,7.88
2023-03-24T02:02:14.727Z,4.70
2023-03-24T02:04:45.136Z,5.60
2023-03-24T02:07:14.204Z,4.75
2023-03-24T02:09:40.707Z,4.00
2023-03-24T02:12:07.300Z,3.60
2023-03-24T02:14:33.773Z,6.80
2023-03-24T02:17:00.217Z,8.18
2023-03-24T02:19:38.552Z,7.35
2023-03-24T02:22:08.162Z,8.93
2023-03-24T02:24:57.572Z,8.10
2023-03-24T02:27:24.015Z,8.68
2023-03-24T02:29:50.502Z,5.85
2023-03-24T02:32:37.314Z,6.18
2023-03-24T02:35:22.489Z,7.70
2023-03-24T02:38:07.474Z,6.47
2023-03-24T02:40:37.054Z,8.48
2023-03-24T02:43:11.146Z,8.73
2023-03-24T02:45:39.989Z,6.85
2023-03-24T02:48:08.393Z,7.75
2023-03-24T02:50:35.748Z,7.70
2023-03-24T02:53:21.285Z,10.40
2023-03-24T02:55:53.954Z,7.47
2023-03-24T02:58:23.427Z,10.13
2023-03-24T03:00:59.392Z,11.68
2023-03-24T03:03:42.924Z,9.77
2023-03-24T03:06:12.342Z,8.98
2023-03-24T03:08:38.864Z,10.25
2023-03-24T03:11:05.791Z,10.52
2023-03-24T03:13:36.786Z,11.48
2023-03-24T03:16:04.431Z,12.98
2023-03-24T03:18:39.377Z,8.43
2023-03-24T03:21:07.851Z,11.40
2023-03-24T03:23:42.264Z,11.13
2023-03-24T03:26:12.433Z,9.57
2023-03-24T03:28:40.174Z,11.27
2023-03-24T03:31:07.517Z,8.63
2023-03-24T03:33:35.968Z,10.30
2023-03-24T03:36:03.575Z,7.80
2023-03-24T03:38:33.149Z,10.95
2023-03-24T03:41:00.355Z,9.07
2023-03-24T03:43:27.202Z,12.45
2023-03-24T03:45:56.643Z,10.35
2023-03-24T03:48:26.474Z,13.50
2023-03-24T03:51:02.803Z,13.15
2023-03-24T03:53:58.330Z,10.50
2023-03-24T03:56:25.909Z,12.25
2023-03-24T03:58:53.596Z,10.18
2023-03-24T04:01:20.953Z,10.55
2023-03-24T04:03:50.489Z,9.77
2023-03-24T04:06:25.375Z,12.30
2023-03-24T04:08:52.484Z,9.98
2023-03-24T04:11:37.848Z,10.10
2023-03-24T04:14:30.995Z,11.00
2023-03-24T04:17:06.739Z,8.00
2023-03-24T04:19:33.371Z,9.25
2023-03-24T04:22:00.583Z,11.88
2023-03-24T04:24:45.506Z,12.25
2023-03-24T04:27:12.110Z,15.15
2023-03-24T04:29:42.963Z,18.17
2023-03-24T04:32:19.755Z,12.02
2023-03-24T04:35:05.081Z,11.65
2023-03-24T04:37:38.070Z,10.02
2023-03-24T04:40:11.438Z,14.85
2023-03-24T04:42:55.999Z,17.13
2023-03-24T04:45:25.861Z,17.40
2023-03-24T04:47:54.487Z,17.75
2023-03-24T04:50:30.470Z,13.13
2023-03-24T04:52:57.225Z,14.05
2023-03-24T04:55:36.195Z,15.65
2023-03-24T04:58:02.666Z,16.98
2023-03-24T05:00:29.132Z,14.63
2023-03-24T05:02:55.672Z,16.23
2023-03-24T05:05:22.444Z,13.43
2023-03-24T05:07:49.364Z,18.10
2023-03-24T05:10:16.405Z,15.88
2023-03-24T05:12:42.886Z,17.40
2023-03-24T05:15:09.565Z,17.88
2023-03-24T05:17:36.168Z,14.00
2023-03-24T05:20:02.700Z,16.00
2023-03-24T05:22:29.170Z,19.83
2023-03-24T05:24:55.612Z,17.95
2023-03-24T05:27:22.120Z,23.45
2023-03-24T05:29:48.618Z,17.95
2023-03-24T05:32:15.553Z,17.98
2023-03-24T05:34:42.001Z,15.82
2023-03-24T05:37:12.163Z,16.42
2023-03-24T05:39:38.691Z,12.30
2023-03-24T05:42:05.200Z,13.90
2023-03-24T05:44:31.870Z,13.90
2023-03-24T05:46:58.742Z,13.45
2023-03-24T05:49:25.518Z,16.77
2023-03-24T05:51:52.029Z,12.13
2023-03-24T05:54:18.550Z,15.05
2023-03-24T05:56:45.760Z,15.35
2023-03-24T05:59:12.371Z,13.23
2023-03-24T06:01:39.487Z,13.95
2023-03-24T06:04:06.222Z,13.15
2023-03-24T06:06:33.157Z,13.93
2023-03-24T06:09:02.537Z,13.93
2023-03-24T06:11:29.094Z,16.23
2023-03-24T06:13:59.495Z,14.85
2023-03-24T06:16:29.439Z,13.30
2023-03-24T06:18:56.047Z,14.60
2023-03-24T06:21:22.605Z,16.13
2023-03-24T06:23:49.214Z,13.95
2023-03-24T06:26:16.816Z,13.85
2023-03-24T06:28:43.363Z,14.20
2023-03-24T06:31:14.889Z,13.13
2023-03-24T06:33:42.756Z,19.73
2023-03-24T06:36:10.070Z,15.23
2023-03-24T06:38:36.620Z,12.77
2023-03-24T06:41:04.248Z,13.68
2023-03-24T06:43:30.849Z,12.52
2023-03-24T06:45:57.705Z,12.65
2023-03-24T06:48:24.490Z,14.23
2023-03-24T06:50:52.103Z,13.13
2023-03-24T06:53:18.659Z,13.68
2023-03-24T06:55:47.367Z,13.25
2023-03-24T06:58:15.034Z,15.10
2023-03-24T07:00:41.835Z,15.45
2023-03-24T07:03:08.496Z,13.18
2023-03-24T07:05:41.561Z,16.00
2023-03-24T07:08:34.115Z,15.98
2023-03-24T07:10:54.521Z,13.65
2023-03-24T07:13:21.033Z,14.02
2023-03-24T07:15:47.532Z,15.00
2023-03-24T07:18:14.181Z,12.15
2023-03-24T07:20:40.888Z,14.73
2023-03-24T07:23:07.486Z,13.40
2023-03-24T07:25:34.429Z,13.95
2023-03-24T07:28:00.897Z,11.55
2023-03-24T07:30:37.308Z,15.25
2023-03-24T07:33:06.498Z,12.90
2023-03-24T07:35:33.087Z,12.75
2023-03-24T07:37:59.963Z,11.20
2023-03-24T07:40:26.509Z,14.23
2023-03-24T07:42:53.024Z,11.82
2023-03-24T07:45:19.545Z,11.48
2023-03-24T07:47:46.256Z,11.57
2023-03-24T07:50:13.208Z,15.23
2023-03-24T07:52:40.660Z,14.50
2023-03-24T07:55:09.800Z,11.73
2023-03-24T07:57:37.749Z,16.38
2023-03-24T08:00:09.304Z,13.70
2023-03-24T08:02:35.873Z,14.70
2023-03-24T08:05:02.875Z,15.05
2023-03-24T08:07:29.640Z,15.88
2023-03-24T08:09:56.628Z,15.23
2023-03-24T08:12:23.137Z,12.57
2023-03-24T08:14:49.640Z,17.23
2023-03-24T08:17:16.192Z,12.70
2023-03-24T08:19:56.111Z,11.93
2023-03-24T08:22:25.463Z,12.90
2023-03-24T08:24:51.929Z,16.67
2023-03-24T08:27:18.444Z,11.18
2023-03-24T08:29:44.907Z,7.97
2023-03-24T08:32:11.386Z,10.70
2023-03-24T08:34:37.850Z,10.07
2023-03-24T08:37:04.442Z,8.75
2023-03-24T08:39:32.460Z,11.45
2023-03-24T08:41:59.003Z,11.20
2023-03-24T08:44:25.540Z,8.55
2023-03-24T08:46:52.084Z,10.02
2023-03-24T08:49:18.699Z,7.82
2023-03-24T08:51:45.536Z,8.85
2023-03-24T08:54:12.822Z,6.97
2023-03-24T08:56:39.585Z,9.43
2023-03-24T08:59:06.819Z,8.65
2023-03-24T09:01:36.401Z,7.53
2023-03-24T09:04:04.082Z,6.25
2023-03-24T09:06:31.112Z,6.93
2023-03-24T09:08:57.578Z,6.45
2023-03-24T09:11:24.565Z,6.32
2023-03-24T09:13:51.098Z,5.68
2023-03-24T09:16:18.159Z,5.13
2023-03-24T09:18:45.019Z,5.13
2023-03-24T09:21:11.503Z,3.75
2023-03-24T09:23:38.124Z,3.20
2023-03-24T09:26:04.896Z,3.67
2023-03-24T09:28:31.650Z,3.80
2023-03-24T09:31:02.223Z,3.22
2023-03-24T09:33:31.740Z,7.13
2023-03-24T09:36:00.129Z,4.35
2023-03-24T09:38:26.988Z,5.32
2023-03-24T09:41:02.710Z,4.53
2023-03-24T09:43:29.625Z,4.78
2023-03-24T09:45:57.180Z,5.97
2023-03-24T09:48:41.319Z,6.32
2023-03-24T09:51:09.389Z,4.20
2023-03-24T09:53:54.778Z,4.40
2023-03-24T09:56:21.438Z,4.90
2023-03-24T09:58:49.280Z,4.28
2023-03-24T10:01:16.291Z,5.45
2023-03-24T10:03:43.304Z,4.85
2023-03-24T10:06:11.049Z,6.10
2023-03-24T10:08:38.662Z,5.47
2023-03-24T10:11:08.309Z,5.07
2023-03-24T10:13:44.113Z,5.75
2023-03-24T10:16:26.652Z,4.75
2023-03-24T10:18:57.178Z,5.15
2023-03-24T10:21:27.890Z,5.63
2023-03-24T10:24:16.046Z,6.75
2023-03-24T10:26:47.055Z,5.90
2023-03-24T10:29:13.534Z,4.32
2023-03-24T10:31:40.130Z,9.60
2023-03-24T10:34:09.791Z,4.25
2023-03-24T10:36:38.462Z,7.18
2023-03-24T10:39:16.601Z,4.47
2023-03-24T10:41:46.351Z,5.78
2023-03-24T10:44:12.952Z,5.10
2023-03-24T10:46:41.990Z,4.32
2023-03-24T10:49:10.185Z,7.28
2023-03-24T10:51:36.788Z,6.93
2023-03-24T10:54:29.636Z,5.43
2023-03-24T10:57:00.559Z,9.35
2023-03-24T10:59:37.430Z,5.40
2023-03-24T11:02:04.254Z,14.05
2023-03-24T11:04:30.915Z,7.57
2023-03-24T11:07:02.450Z,5.95
2023-03-24T11:09:29.797Z,23.25
2023-03-24T11:11:58.575Z,16.58
2023-03-24T11:14:26.519Z,11.95
2023-03-24T11:16:53.665Z,17.50
2023-03-24T11:19:22.371Z,15.05
2023-03-24T11:21:50.805Z,9.32
2023-03-24T11:24:17.765Z,9.50
2023-03-24T11:26:55.871Z,10.07
2023-03-24T11:29:24.403Z,15.05
2023-03-24T11:31:51.962Z,6.85
2023-03-24T11:34:24.576Z,8.02
2023-03-24T11:37:11.403Z,6.15
2023-03-24T11:39:37.876Z,16.25
2023-03-24T11:42:10.554Z,12.45
2023-03-24T11:44:44.281Z,12.32
2023-03-24T11:47:14.273Z,11.95
2023-03-24T11:49:45.680Z,9.02
2023-03-24T11:52:22.990Z,8.68
2023-03-24T11:54:49.533Z,8.00
2023-03-24T11:57:17.672Z,10.90
2023-03-24T12:00:02.912Z,11.10
2023-03-24T12:02:41.844Z,5.50
2023-03-24T12:05:17.196Z,7.60
2023-03-24T12:08:03.009Z,6.80
2023-03-24T12:10:38.738Z,6.32
2023-03-24T12:13:05.335Z,11.77
2023-03-24T12:15:44.057Z,6.68
2023-03-24T12:18:10.836Z,8.00
2023-03-24T12:20:40.346Z,9.02
2023-03-24T12:23:14.508Z,8.20
2023-03-24T12:25:47.468Z,8.45
2023-03-24T12:28:22.687Z,11.32
2023-03-24T12:31:11.596Z,9.02
2023-03-24T12:33:45.034Z,11.88
2023-03-24T12:36:14.429Z,8.38
2023-03-24T12:38:44.461Z,11.70
2023-03-24T12:41:20.264Z,8.65
2023-03-24T12:43:52.890Z,12.10
2023-03-24T12:46:47.670Z,17.73
2023-03-24T12:49:30.665Z,13.52
2023-03-24T12:52:00.110Z,10.15
2023-03-24T12:54:27.669Z,11.98
2023-03-24T12:57:04.777Z,7.50
2023-03-24T12:59:41.844Z,9.63
2023-03-24T13:02:14.499Z,9.98
2023-03-24T13:04:42.412Z,8.38
2023-03-24T13:07:11.758Z,10.18
2023-03-24T13:09:59.420Z,7.95
2023-03-24T13:12:26.030Z,7.72
2023-03-24T13:15:07.356Z,12.73
2023-03-24T13:17:36.290Z,8.70
2023-03-24T13:20:06.455Z,12.43
2023-03-24T13:22:32.956Z,8.85
2023-03-24T13:24:59.469Z,6.72
2023-03-24T13:27:27.166Z,5.32
2023-03-24T13:30:00.323Z,5.35
2023-03-24T13:32:29.439Z,7.78
2023-03-24T13:35:14.558Z,7.20
2023-03-24T13:37:43.746Z,6.05
2023-03-24T13:40:23.644Z,7.18
2023-03-24T13:42:50.801Z,7.20
2023-03-24T13:45:23.630Z,6.10
2023-03-24T13:47:51.308Z,6.18
2023-03-24T13:50:17.889Z,6.38
2023-03-24T13:52:46.005Z,8.27
2023-03-24T13:55:27.725Z,8.90
2023-03-24T13:57:58.299Z,9.20
2023-03-24T14:00:25.288Z,6.00
2023-03-24T14:02:56.185Z,14.75
2023-03-24T14:05:22.755Z,8.10
2023-03-24T14:08:01.906Z,7.35
2023-03-24T14:10:30.291Z,6.82
2023-03-24T14:12:59.880Z,9.70
2023-03-24T14:15:27.647Z,11.88
2023-03-24T14:17:54.579Z,11.65
2023-03-24T14:20:28.724Z,15.27
2023-03-24T14:22:55.650Z,10.73
2023-03-24T14:25:26.455Z,9.65
2023-03-24T14:28:06.892Z,9.02
2023-03-24T14:30:38.263Z,8.60
2023-03-24T14:33:04.967Z,9.63
2023-03-24T14:35:37.144Z,5.32
2023-03-24T14:38:15.971Z,5.97
2023-03-24T14:40:43.292Z,7.20
2023-03-24T14:43:16.082Z,6.35
2023-03-24T14:45:52.151Z,7.40
2023-03-24T14:48:35.141Z,4.38
2023-03-24T14:51:04.335Z,2.42
2023-03-24T14:53:30.891Z,2.50
2023-03-24T14:55:57.520Z,2.88
2023-03-24T14:58:30.404Z,3.03
2023-03-24T15:01:07.060Z,5.03
2023-03-24T15:03:53.300Z,2.45
2023-03-24T15:06:23.224Z,3.47
2023-03-24T15:08:50.729Z,3.58
2023-03-24T15:11:17.919Z,5.78
2023-03-24T15:13:45.560Z,2.28
2023-03-24T15:16:12.175Z,3.00
2023-03-24T15:18:59.927Z,5.70
2023-03-24T15:21:28.287Z,4.15
2023-03-24T15:23:55.754Z,5.35
2023-03-24T15:26:22.604Z,3.83
2023-03-24T15:28:56.896Z,4.88
2023-03-24T15:31:25.221Z,3.17
2023-03-24T15:33:52.978Z,6.38
2023-03-24T15:36:22.793Z,3.13
2023-03-24T15:38:51.347Z,6.20
2023-03-24T15:41:18.322Z,5.85
2023-03-24T15:43:45.603Z,3.88
2023-03-24T15:46:19.025Z,4.97
2023-03-24T15:48:45.685Z,4.28
2023-03-24T15:51:12.897Z,4.75
2023-03-24T15:53:44.550Z,3.90
2023-03-24T15:56:20.330Z,4.25
2023-03-24T15:58:48.218Z,3.25
2023-03-24T16:01:17.319Z,4.28
2023-03-24T16:03:44.041Z,4.47
2023-03-24T16:06:23.226Z,3.05
2023-03-24T16:08:49.743Z,3.45
2023-03-24T16:11:16.732Z,3.28
2023-03-24T16:13:44.851Z,4.05
2023-03-24T16:16:14.492Z,3.83
2023-03-24T16:18:41.705Z,3.40
2023-03-24T16:21:11.492Z,3.63
2023-03-24T16:23:38.626Z,3.30
2023-03-24T16:26:05.554Z,4.53
2023-03-24T16:28:33.846Z,5.07
2023-03-24T16:31:03.772Z,3.67
2023-03-24T16:33:33.979Z,4.32
2023-03-24T16:36:00.947Z,3.42
2023-03-24T16:38:27.581Z,4.28
2023-03-24T16:40:54.845Z,4.38
2023-03-24T16:43:21.455Z,4.68
2023-03-24T16:45:48.773Z,4.57
2023-03-24T16:48:15.790Z,4.95
2023-03-24T16:50:43.369Z,4.75
2023-03-24T16:53:09.922Z,6.38
2023-03-24T16:55:37.097Z,5.82
2023-03-24T16:58:04.111Z,5.32
2023-03-24T17:00:31.332Z,6.13
2023-03-24T17:03:00.127Z,8.38
2023-03-24T17:05:28.403Z,5.50
2023-03-24T17:07:55.602Z,6.88
2023-03-24T17:10:22.756Z,8.43
2023-03-24T17:12:49.889Z,7.70
2023-03-24T17:15:26.332Z,6.22
2023-03-24T17:17:52.957Z,6.53
2023-03-24T17:20:19.931Z,7.60
2023-03-24T17:22:46.928Z,6.18
2023-03-24T17:25:13.757Z,7.22
2023-03-24T17:27:40.393Z,7.97
2023-03-24T17:30:07.306Z,9.55
2023-03-24T17:32:34.195Z,9.32
2023-03-24T17:35:01.691Z,12.25
2023-03-24T17:37:28.888Z,9.10
2023-03-24T17:39:58.438Z,11.15
2023-03-24T17:42:26.048Z,14.68
2023-03-24T17:44:52.554Z,9.80
2023-03-24T17:47:19.216Z,11.98
2023-03-24T17:49:45.740Z,10.45
2023-03-24T17:52:12.285Z,10.13
2023-03-24T17:54:38.864Z,12.55
2023-03-24T17:57:05.489Z,12.55
2023-03-24T17:59:32.849Z,9.65
2023-03-24T18:01:59.450Z,9.40
2023-03-24T18:04:25.979Z,10.68
2023-03-24T18:06:52.638Z,11.68
2023-03-24T18:09:19.182Z,8.68
2023-03-24T18:11:47.698Z,8.93
2023-03-24T18:14:14.374Z,11.85
2023-03-24T18:16:41.000Z,11.35
2023-03-24T18:19:07.697Z,10.98
2023-03-24T18:21:34.295Z,9.75
2023-03-24T18:24:00.832Z,11.98
2023-03-24T18:26:27.532Z,13.18
2023-03-24T18:28:54.089Z,11.55
2023-03-24T18:31:20.988Z,12.88
2023-03-24T18:33:48.150Z,12.15
2023-03-24T18:36:16.635Z,14.75
2023-03-24T18:38:43.563Z,12.88
2023-03-24T18:41:10.492Z,17.02
2023-03-24T18:43:41.226Z,14.85
2023-03-24T18:46:10.813Z,11.98
2023-03-24T18:48:38.041Z,12.68
2023-03-24T18:51:04.757Z,13.82
2023-03-24T18:53:31.324Z,13.10
2023-03-24T18:55:57.850Z,12.60
2023-03-24T18:58:24.502Z,12.05
2023-03-24T19:00:51.933Z,10.88
2023-03-24T19:03:18.582Z,17.33
2023-03-24T19:05:47.099Z,15.27
2023-03-24T19:08:14.922Z,12.73
2023-03-24T19:10:42.932Z,13.77
2023-03-24T19:13:10.010Z,12.43
2023-03-24T19:15:36.973Z,14.52
2023-03-24T19:18:03.903Z,13.45
2023-03-24T19:20:30.564Z,14.55
2023-03-24T19:22:57.050Z,13.60
2023-03-24T19:25:23.665Z,16.35
2023-03-24T19:27:50.630Z,12.77
2023-03-24T19:30:18.394Z,11.88
2023-03-24T19:32:46.707Z,10.43
2023-03-24T19:35:13.438Z,10.63
2023-03-24T19:37:40.155Z,10.35
2023-03-24T19:40:08.990Z,9.48
2023-03-24T19:42:35.550Z,9.98
2023-03-24T19:45:02.141Z,8.90
2023-03-24T19:47:28.651Z,8.27
2023-03-24T19:49:56.948Z,8.63
2023-03-24T19:52:23.566Z,9.20
2023-03-24T19:54:52.544Z,11.30
2023-03-24T19:57:19.613Z,9.18
2023-03-24T19:59:46.214Z,8.40
2023-03-24T20:02:16.433Z,8.10
2023-03-24T20:04:43.067Z,7.25
2023-03-24T20:07:09.966Z,6.32
2023-03-24T20:09:36.603Z,9.77
2023-03-24T20:12:04.032Z,5.80
2023-03-24T20:14:33.545Z,6.50
2023-03-24T20:17:00.769Z,5.20
2023-03-24T20:19:28.093Z,5.70
2023-03-24T20:21:54.739Z,6.53
2023-03-24T20:24:21.601Z,7.45
2023-03-24T20:26:48.536Z,6.03
2023-03-24T20:29:15.118Z,4.90
2023-03-24T20:31:43.153Z,6.97
2023-03-24T20:34:09.860Z,7.50
2023-03-24T20:36:38.646Z,4.53
2023-03-24T20:39:06.030Z,4.70
2023-03-24T20:41:32.774Z,6.43
2023-03-24T20:43:59.440Z,5.22
2023-03-24T20:46:26.200Z,8.30
2023-03-24T20:48:53.670Z,4.72
2023-03-24T20:51:20.685Z,6.20
2023-03-24T20:53:49.952Z,6.57
2023-03-24T20:56:16.952Z,5.65
2023-03-24T20:58:44.530Z,7.55
2023-03-24T21:01:20.852Z,8.43
2023-03-24T21:03:51.067Z,8.07
2023-03-24T21:06:17.845Z,8.73
2023-03-24T21:08:45.230Z,9.48
2023-03-24T21:11:11.977Z,10.20
2023-03-24T21:13:38.529Z,8.63
2023-03-24T21:16:08.084Z,10.98
2023-03-24T21:18:35.582Z,8.85
2023-03-24T21:21:12.532Z,8.77
2023-03-24T21:23:39.465Z,9.27
2023-03-24T21:26:07.737Z,9.95
2023-03-24T21:28:34.313Z,9.65
2023-03-24T21:31:11.153Z,11.20
2023-03-24T21:33:41.019Z,9.73
2023-03-24T21:36:08.422Z,7.75
2023-03-24T21:38:35.091Z,8.43
2023-03-24T21:41:02.245Z,7.40
2023-03-24T21:43:30.461Z,8.23
2023-03-24T21:45:57.675Z,5.22
2023-03-24T21:48:25.057Z,6.72
2023-03-24T21:50:52.454Z,6.32
2023-03-24T21:53:19.132Z,5.28
2023-03-24T21:55:49.766Z,4.55
2023-03-24T21:58:16.559Z,5.10
2023-03-24T22:00:44.882Z,3.28
2023-03-24T22:03:11.486Z,3.78
2023-03-24T22:05:38.903Z,4.05
2023-03-24T22:08:06.594Z,3.28
2023-03-24T22:10:34.979Z,5.38
2023-03-24T22:13:02.426Z,3.00
2023-03-24T22:15:30.521Z,4.15
2023-03-24T22:17:59.123Z,3.85
2023-03-24T22:20:28.276Z,2.55
2023-03-24T22:22:54.887Z,3.38
2023-03-24T22:25:21.423Z,2.65
2023-03-24T22:27:52.801Z,2.08
2023-03-24T22:30:19.496Z,2.05
2023-03-24T22:32:46.176Z,2.45
2023-03-24T22:35:12.693Z,2.55
2023-03-24T22:37:39.203Z,2.10
2023-03-24T22:40:06.776Z,2.00
2023-03-24T22:42:33.279Z,2.60
2023-03-24T22:44:59.821Z,2.20
2023-03-24T22:47:27.518Z,3.20
2023-03-24T22:49:54.072Z,2.47
2023-03-24T22:52:20.645Z,2.13
2023-03-24T22:54:47.142Z,5.20
2023-03-24T22:57:13.697Z,2.35
2023-03-24T22:59:40.272Z,3.45
2023-03-24T23:02:09.963Z,3.63
2023-03-24T23:04:37.158Z,4.70
2023-03-24T23:07:05.297Z,3.70
2023-03-24T23:09:31.833Z,3.20
2023-03-24T23:11:58.293Z,2.85
2023-03-24T23:14:25.668Z,4.35
2023-03-24T23:16:52.342Z,3.75
2023-03-24T23:19:18.967Z,4.63
2023-03-24T23:21:45.989Z,4.35
2023-03-24T23:24:12.636Z,4.15
2023-03-24T23:26:39.113Z,3.65
2023-03-24T23:29:05.885Z,3.80
2023-03-24T23:31:32.442Z,2.80
2023-03-24T23:33:59.039Z,3.35
2023-03-24T23:36:26.506Z,4.47
2023-03-24T23:38:53.534Z,4.38
2023-03-24T23:41:20.348Z,4.65
2023-03-24T23:43:50.420Z,3.40
2023-03-24T23:46:17.519Z,2.90
2023-03-24T23:48:44.074Z,4.55
2023-03-24T23:51:10.548Z,4.25
2023-03-24T23:53:37.144Z,3.95
2023-03-24T23:56:07.278Z,3.75
2023-03-24T23:58:34.622Z,3.65
